createdAt,value
2023-04-20T05:03:14.161Z,25.00
2023-04-20T05:04:14.964Z,25.00
2023-04-20T05:05:14.024Z,25.00
2023-04-20T05:06:14.793Z,25.00
2023-04-20T05:07:14.777Z,25.00
2023-04-20T05:08:13.795Z,25.00
2023-04-20T05:09:13.781Z,0.00
2023-04-20T05:10:15.383Z,0.00
2023-04-20T05:11:13.767Z,0.00
2023-04-20T05:12:13.721Z,0.00
2023-04-20T05:13:14.742Z,0.00
2023-04-20T05:14:14.715Z,0.00
2023-04-20T05:15:14.733Z,0.00
2023-04-20T05:16:14.800Z,0.00
2023-04-20T05:17:14.722Z,0.00
2023-04-20T05:18:14.683Z,0.00
2023-04-20T05:19:14.722Z,0.00
2023-04-20T05:20:13.699Z,0.00
2023-04-20T05:21:14.659Z,0.00
2023-04-20T05:22:13.729Z,0.00
2023-04-20T05:23:14.676Z,0.00
2023-04-20T05:24:14.716Z,0.00
2023-04-20T05:25:14.743Z,0.00
2023-04-20T05:26:14.799Z,0.00
2023-04-20T05:27:14.863Z,0.00
2023-04-20T05:28:14.928Z,0.00
2023-04-20T05:29:15.027Z,0.00
2023-04-20T05:30:21.339Z,0.00
2023-04-20T05:31:15.081Z,0.00
2023-04-20T05:32:14.000Z,0.00
2023-04-20T05:33:14.951Z,0.00
2023-04-20T05:34:14.986Z,0.00
2023-04-20T05:35:14.989Z,0.00
2023-04-20T05:36:13.946Z,0.00
2023-04-20T05:37:14.001Z,0.00
2023-04-20T05:38:13.942Z,0.00
2023-04-20T05:39:14.942Z,0.00
2023-04-20T05:40:14.930Z,0.00
2023-04-20T05:41:14.900Z,0.00
2023-04-20T05:42:14.947Z,0.00
2023-04-20T05:43:14.923Z,0.00
2023-04-20T05:44:14.899Z,0.00
2023-04-20T05:45:14.957Z,0.00
2023-04-20T05:46:15.008Z,0.00
2023-04-20T05:47:14.953Z,0.00
2023-04-20T05:48:13.958Z,0.00
2023-04-20T05:50:45.932Z,25.00
2023-04-20T05:51:46.586Z,25.00
2023-04-20T05:52:46.857Z,25.00
2023-04-20T05:53:45.401Z,25.00
2023-04-20T05:54:45.374Z,25.00
2023-04-20T05:55:46.973Z,25.00
2023-04-20T05:58:04.701Z,25.00
2023-04-20T05:59:05.681Z,25.00
2023-04-20T06:00:04.786Z,25.00
2023-04-20T06:01:05.593Z,25.00
2023-04-20T06:02:05.809Z,25.00
2023-04-20T06:03:04.907Z,27.05
2023-04-20T06:04:05.710Z,22.75
2023-04-20T06:05:05.831Z,27.59
2023-04-20T06:06:05.725Z,29.91
2023-04-20T06:07:05.861Z,31.53
2023-04-20T06:08:04.577Z,68.47
2023-04-20T06:09:05.572Z,76.66
2023-04-20T06:11:24.359Z,25.00
2023-04-20T06:12:26.711Z,25.00
2023-04-20T06:13:25.400Z,25.00
2023-04-20T06:14:25.411Z,25.00
2023-04-20T06:15:25.413Z,25.00
2023-04-20T06:16:25.374Z,56.19
2023-04-20T06:17:25.667Z,39.80
2023-04-20T06:18:26.450Z,36.39
2023-04-20T06:19:25.592Z,47.26
2023-04-20T06:23:06.357Z,25.00
2023-04-20T06:24:04.356Z,25.00
2023-04-20T06:25:06.161Z,25.00
2023-04-20T06:27:24.794Z,25.00
2023-04-20T06:28:24.966Z,25.00
2023-04-20T06:29:24.585Z,25.00
2023-04-20T06:30:23.730Z,25.00
2023-04-20T06:31:23.702Z,25.00
2023-04-20T06:32:23.604Z,47.57
2023-04-20T06:33:24.209Z,43.20
2023-04-20T06:34:24.578Z,57.73
2023-04-20T06:35:24.549Z,97.06
2023-04-20T06:36:23.576Z,141.67
2023-04-20T06:37:24.542Z,77.12
2023-04-20T06:38:24.542Z,72.07
2023-04-20T06:39:24.545Z,81.76
2023-04-20T06:40:23.511Z,97.54
2023-04-20T06:41:23.523Z,88.07
2023-04-20T06:42:24.501Z,94.87
2023-04-20T06:43:24.494Z,112.55
2023-04-20T06:44:23.518Z,89.13
2023-04-20T06:45:24.470Z,61.31
2023-04-20T06:46:23.518Z,62.21
2023-04-20T06:47:23.483Z,88.76
2023-04-20T06:48:32.315Z,74.31
2023-04-20T06:49:24.466Z,75.14
2023-04-20T06:50:24.491Z,80.67
2023-04-20T06:51:23.859Z,83.27
2023-04-20T06:52:24.419Z,106.90
2023-04-20T06:53:23.415Z,163.95
2023-04-20T06:54:23.441Z,159.49
2023-04-20T06:55:24.429Z,200.03
2023-04-20T06:56:24.766Z,205.19
2023-04-20T06:57:24.379Z,182.49
2023-04-20T06:58:24.684Z,166.47
2023-04-20T06:59:23.366Z,162.12
2023-04-20T07:00:23.414Z,145.46
2023-04-20T07:01:24.605Z,164.28
2023-04-20T07:03:43.292Z,25.00
2023-04-20T07:04:44.274Z,25.00
2023-04-20T07:05:44.082Z,25.00
2023-04-20T07:06:44.113Z,25.00
2023-04-20T07:07:43.092Z,25.00
2023-04-20T07:10:02.961Z,25.00
2023-04-20T07:11:02.721Z,25.00
2023-04-20T07:12:02.671Z,25.00
2023-04-20T07:13:03.671Z,25.00
2023-04-20T07:14:02.663Z,25.00
2023-04-20T07:15:03.608Z,25.39
2023-04-20T07:16:02.669Z,22.15
2023-04-20T07:17:02.780Z,22.54
2023-04-20T07:18:04.678Z,19.85
2023-04-20T07:19:04.366Z,17.78
2023-04-20T07:20:02.899Z,37.22
2023-04-20T07:21:03.645Z,67.49
2023-04-20T07:22:03.571Z,44.55
2023-04-20T07:23:02.596Z,66.25
2023-04-20T07:24:02.544Z,101.30
2023-04-20T07:25:02.562Z,142.91
2023-04-20T07:26:03.698Z,169.29
2023-04-20T07:27:02.618Z,151.77
2023-04-20T07:28:02.590Z,127.16
2023-04-20T07:29:03.608Z,500.00
2023-04-20T07:30:02.656Z,500.00
2023-04-20T07:31:03.716Z,500.00
2023-04-20T07:32:03.760Z,500.00
2023-04-20T07:33:03.830Z,395.26
2023-04-20T07:34:03.786Z,326.60
2023-04-20T07:35:03.816Z,246.52
2023-04-20T07:36:02.814Z,238.33
2023-04-20T07:37:02.931Z,500.00
2023-04-20T07:38:03.854Z,500.00
2023-04-20T07:39:02.901Z,500.00
2023-04-20T07:40:02.935Z,500.00
2023-04-20T07:41:04.009Z,500.00
2023-04-20T07:42:03.065Z,500.00
2023-04-20T07:43:04.128Z,456.06
2023-04-20T07:44:04.148Z,371.70
2023-04-20T07:45:04.216Z,314.85
2023-04-20T07:46:04.374Z,278.41
2023-04-20T07:47:03.394Z,256.50
2023-04-20T07:48:03.398Z,247.46
2023-04-20T07:49:04.748Z,378.35
2023-04-20T07:50:04.466Z,287.61
2023-04-20T07:51:04.527Z,222.91
2023-04-20T07:52:15.683Z,221.13
2023-04-20T07:53:04.554Z,229.20
2023-04-20T07:54:04.548Z,236.50
2023-04-20T07:55:04.557Z,237.07
2023-04-20T07:56:03.705Z,254.22
2023-04-20T07:57:03.574Z,288.19
2023-04-20T07:59:22.752Z,25.00
2023-04-20T08:00:23.722Z,25.00
2023-04-20T08:01:23.668Z,25.00
2023-04-20T08:02:23.805Z,25.00
2023-04-20T08:03:23.847Z,25.00
2023-04-20T08:04:22.909Z,0.00
2023-04-20T08:05:23.856Z,60.18
2023-04-20T08:06:23.714Z,12.98
2023-04-20T08:07:22.671Z,0.00
2023-04-20T08:08:23.645Z,51.84
2023-04-20T08:09:22.675Z,137.77
2023-04-20T08:10:23.686Z,59.89
2023-04-20T08:11:23.545Z,0.00
2023-04-20T08:12:23.609Z,0.00
2023-04-20T08:13:23.631Z,0.00
2023-04-20T08:14:23.560Z,0.00
2023-04-20T08:15:22.753Z,0.00
2023-04-20T08:16:24.089Z,0.00
2023-04-20T08:17:23.674Z,19.73
2023-04-20T08:18:22.551Z,35.10
2023-04-20T08:19:23.598Z,137.24
2023-04-20T08:20:23.909Z,355.99
2023-04-20T08:21:25.468Z,239.82
2023-04-20T08:23:42.057Z,25.00
2023-04-20T08:24:42.156Z,25.00
2023-04-20T08:25:42.290Z,25.00
2023-04-20T08:26:41.938Z,25.00
2023-04-20T08:27:47.179Z,25.00
2023-04-20T08:28:44.617Z,25.00
2023-04-20T08:29:43.356Z,25.00
2023-04-20T08:30:43.796Z,25.00
2023-04-20T08:31:43.388Z,25.00
2023-04-20T08:32:42.097Z,25.00
2023-04-20T08:33:44.256Z,25.00
2023-04-20T08:34:42.133Z,0.00
2023-04-20T08:35:42.248Z,0.00
2023-04-20T08:36:43.843Z,0.00
2023-04-20T08:37:42.657Z,79.07
2023-04-20T08:38:42.259Z,100.52
2023-04-20T08:39:42.453Z,77.12
2023-04-20T08:40:43.286Z,168.32
2023-04-20T08:41:43.507Z,139.56
2023-04-20T08:42:43.312Z,88.83
2023-04-20T08:43:42.359Z,50.03
2023-04-20T08:44:43.383Z,25.00
2023-04-20T08:45:43.427Z,15.64
2023-04-20T08:46:43.599Z,68.70
2023-04-20T08:47:42.534Z,500.00
2023-04-20T08:48:43.525Z,295.53
2023-04-20T08:49:43.568Z,399.80
2023-04-20T08:50:42.634Z,413.68
2023-04-20T08:51:42.657Z,393.19
2023-04-20T08:52:42.720Z,298.36
2023-04-20T08:53:42.744Z,311.18
2023-04-20T08:54:55.238Z,282.03
2023-04-20T08:55:43.716Z,228.74
2023-04-20T08:56:43.752Z,154.83
2023-04-20T08:57:43.998Z,120.53
2023-04-20T08:58:43.749Z,250.46
2023-04-20T08:59:42.728Z,156.64
2023-04-20T09:00:43.703Z,90.71
2023-04-20T09:01:43.724Z,75.98
2023-04-20T09:02:43.876Z,78.11
2023-04-20T09:03:42.805Z,96.32
2023-04-20T09:04:43.764Z,46.71
2023-04-20T09:05:43.654Z,62.21
2023-04-20T09:06:43.653Z,63.01
2023-04-20T09:07:43.681Z,79.40
2023-04-20T09:08:43.674Z,59.95
2023-04-20T09:09:42.646Z,30.14
2023-04-20T09:10:43.607Z,57.57
2023-04-20T09:11:42.619Z,61.69
2023-04-20T09:12:43.637Z,63.47
2023-04-20T09:13:43.738Z,44.79
2023-04-20T09:14:43.640Z,60.36
2023-04-20T09:15:43.636Z,33.89
2023-04-20T09:16:42.790Z,25.32
2023-04-20T09:17:43.720Z,0.00
2023-04-20T09:18:43.790Z,0.00
2023-04-20T09:19:43.789Z,8.26
2023-04-20T09:20:43.797Z,17.40
2023-04-20T09:21:42.853Z,32.42
2023-04-20T09:22:44.575Z,29.01
2023-04-20T09:23:44.122Z,52.18
2023-04-20T09:24:42.888Z,33.24
2023-04-20T09:25:43.925Z,25.91
2023-04-20T09:26:42.994Z,22.45
2023-04-20T09:27:44.068Z,14.48
2023-04-20T09:28:44.195Z,30.15
2023-04-20T09:29:44.246Z,24.95
2023-04-20T09:30:44.183Z,30.79
2023-04-20T09:31:44.471Z,46.60
2023-04-20T09:32:43.376Z,25.00
2023-04-20T09:33:43.293Z,25.96
2023-04-20T09:34:43.326Z,36.28
2023-04-20T09:35:43.475Z,53.80
2023-04-20T09:36:43.369Z,71.48
2023-04-20T09:37:44.547Z,67.20
2023-04-20T09:38:44.416Z,40.09
2023-04-20T09:39:44.444Z,44.88
2023-04-20T09:40:43.432Z,52.76
2023-04-20T09:41:44.439Z,18.94
2023-04-20T09:42:44.463Z,2.13
2023-04-20T09:43:44.584Z,33.62
2023-04-20T09:44:43.519Z,37.59
2023-04-20T09:45:43.562Z,41.74
2023-04-20T09:46:43.536Z,57.80
2023-04-20T09:47:44.109Z,48.22
2023-04-20T09:48:43.605Z,31.29
2023-04-20T09:49:44.570Z,16.88
2023-04-20T09:50:50.086Z,11.49
2023-04-20T09:51:44.580Z,11.77
2023-04-20T09:52:45.029Z,14.25
2023-04-20T09:53:44.571Z,17.41
2023-04-20T09:54:44.547Z,26.28
2023-04-20T09:55:44.560Z,32.81
2023-04-20T09:56:43.611Z,34.76
2023-04-20T09:57:43.550Z,29.12
2023-04-20T09:58:43.528Z,46.91
2023-04-20T09:59:44.534Z,67.49
2023-04-20T10:00:44.516Z,55.14
2023-04-20T10:01:43.612Z,33.87
2023-04-20T10:02:44.662Z,53.75
2023-04-20T10:03:44.602Z,30.12
2023-04-20T10:04:44.577Z,39.42
2023-04-20T10:05:43.468Z,31.27
2023-04-20T10:06:43.513Z,33.42
2023-04-20T10:07:44.472Z,36.03
2023-04-20T10:08:44.469Z,31.05
2023-04-20T10:09:43.441Z,27.92
2023-04-20T10:10:43.450Z,27.68
2023-04-20T10:11:52.529Z,30.37
2023-04-20T10:12:44.440Z,16.47
2023-04-20T10:13:44.432Z,13.99
2023-04-20T10:14:44.416Z,10.90
2023-04-20T10:15:44.419Z,21.21
2023-04-20T10:16:44.475Z,26.71
2023-04-20T10:17:44.473Z,37.02
2023-04-20T10:18:44.475Z,23.13
2023-04-20T10:19:44.382Z,15.92
2023-04-20T10:20:43.369Z,4.81
2023-04-20T10:21:44.377Z,0.00
2023-04-20T10:22:44.378Z,9.40
2023-04-20T10:23:44.342Z,4.80
2023-04-20T10:24:43.380Z,0.02
2023-04-20T10:25:43.348Z,0.90
2023-04-20T10:26:44.370Z,3.68
2023-04-20T10:27:43.395Z,11.81
2023-04-20T10:28:44.464Z,17.08
2023-04-20T10:29:44.465Z,33.08
2023-04-20T10:30:44.524Z,36.17
2023-04-20T10:31:43.492Z,26.09
2023-04-20T10:32:43.531Z,37.68
2023-04-20T10:33:44.617Z,42.20
2023-04-20T10:34:44.583Z,27.20
2023-04-20T10:35:45.301Z,28.94
2023-04-20T10:36:44.629Z,30.41
2023-04-20T10:37:45.039Z,34.04
2023-04-20T10:38:43.777Z,41.97
2023-04-20T10:39:43.712Z,37.00
2023-04-20T10:40:44.767Z,41.80
2023-04-20T10:41:43.802Z,36.55
2023-04-20T10:42:45.069Z,41.60
2023-04-20T10:43:44.910Z,23.82
2023-04-20T10:44:43.909Z,35.14
2023-04-20T10:45:44.952Z,65.04
2023-04-20T10:46:45.007Z,46.22
2023-04-20T10:47:45.112Z,39.04
2023-04-20T10:48:45.026Z,44.28
2023-04-20T10:49:44.060Z,40.36
2023-04-20T10:50:45.090Z,43.36
2023-04-20T10:51:44.107Z,28.70
2023-04-20T10:52:45.156Z,23.02
2023-04-20T10:53:45.166Z,26.42
2023-04-20T10:54:45.219Z,32.47
2023-04-20T10:55:45.253Z,40.82
2023-04-20T10:56:45.292Z,41.16
2023-04-20T10:57:44.279Z,36.12
2023-04-20T10:58:44.287Z,36.01
2023-04-20T10:59:45.293Z,31.47
2023-04-20T11:00:44.363Z,25.48
2023-04-20T11:01:45.485Z,25.66
2023-04-20T11:02:45.472Z,21.89
2023-04-20T11:03:44.613Z,24.05
2023-04-20T11:04:45.537Z,21.97
2023-04-20T11:05:45.510Z,28.60
2023-04-20T11:06:45.576Z,46.61
2023-04-20T11:07:45.577Z,46.78
2023-04-20T11:08:44.617Z,45.46
2023-04-20T11:09:45.643Z,36.28
2023-04-20T11:10:45.696Z,37.92
2023-04-20T11:11:44.726Z,35.80
2023-04-20T11:12:45.703Z,29.08
2023-04-20T11:13:44.745Z,32.32
2023-04-20T11:14:44.767Z,24.96
2023-04-20T11:15:44.794Z,22.73
2023-04-20T11:16:51.513Z,27.50
2023-04-20T11:17:46.612Z,27.68
2023-04-20T11:18:45.789Z,27.74
2023-04-20T11:19:44.791Z,28.23
2023-04-20T11:20:44.756Z,29.33
2023-04-20T11:21:45.760Z,35.33
2023-04-20T11:22:45.767Z,39.45
2023-04-20T11:23:44.842Z,55.25
2023-04-20T11:24:44.752Z,53.74
2023-04-20T11:25:45.735Z,54.94
2023-04-20T11:26:45.744Z,46.68
2023-04-20T11:27:45.733Z,51.91
2023-04-20T11:28:45.727Z,48.33
2023-04-20T11:29:45.743Z,45.82
2023-04-20T11:30:45.708Z,40.81
2023-04-20T11:31:45.754Z,41.33
2023-04-20T11:32:44.895Z,39.43
2023-04-20T11:33:45.760Z,32.59
2023-04-20T11:34:47.972Z,29.93
2023-04-20T11:35:45.766Z,29.94
2023-04-20T11:36:45.719Z,30.61
2023-04-20T11:37:46.060Z,32.14
2023-04-20T11:38:45.824Z,34.45
2023-04-20T11:39:44.826Z,42.43
2023-04-20T11:40:44.836Z,58.17
2023-04-20T11:41:44.865Z,59.26
2023-04-20T11:42:45.969Z,51.20
2023-04-20T11:43:44.944Z,64.20
2023-04-20T11:44:44.967Z,56.65
2023-04-20T11:45:45.065Z,57.17
2023-04-20T11:46:45.058Z,55.58
2023-04-20T11:47:45.174Z,49.78
2023-04-20T11:48:46.113Z,47.98
2023-04-20T11:49:46.117Z,56.37
2023-04-20T11:50:46.145Z,53.31
2023-04-20T11:51:45.164Z,49.26
2023-04-20T11:52:46.205Z,40.05
2023-04-20T11:53:45.320Z,39.32
2023-04-20T11:54:46.299Z,48.84
2023-04-20T11:55:46.316Z,53.13
2023-04-20T11:56:46.376Z,65.91
2023-04-20T11:57:46.392Z,60.98
2023-04-20T11:58:45.440Z,53.81
2023-04-20T11:59:46.506Z,72.09
2023-04-20T12:00:46.464Z,78.78
2023-04-20T12:01:46.499Z,88.64
2023-04-20T12:02:46.687Z,77.81
2023-04-20T12:03:47.729Z,90.70
2023-04-20T12:04:45.762Z,72.70
2023-04-20T12:05:45.853Z,65.58
2023-04-20T12:06:45.698Z,59.62
2023-04-20T12:07:46.775Z,51.86
2023-04-20T12:08:46.788Z,54.20
2023-04-20T12:09:46.806Z,55.35
2023-04-20T12:10:45.824Z,62.60
2023-04-20T12:11:46.917Z,66.55
2023-04-20T12:12:46.927Z,66.62
2023-04-20T12:13:46.915Z,73.50
2023-04-20T12:14:45.952Z,66.39
2023-04-20T12:15:45.969Z,57.13
2023-04-20T12:16:46.983Z,55.02
2023-04-20T12:17:47.191Z,51.62
2023-04-20T12:18:47.086Z,42.68
2023-04-20T12:19:46.156Z,49.87
2023-04-20T12:20:46.115Z,56.18
2023-04-20T12:21:47.159Z,59.28
2023-04-20T12:22:46.218Z,55.65
2023-04-20T12:23:47.188Z,49.00
2023-04-20T12:24:46.196Z,47.39
2023-04-20T12:25:46.229Z,40.60
2023-04-20T12:26:46.250Z,51.01
2023-04-20T12:27:48.216Z,58.29
2023-04-20T12:28:47.253Z,54.83
2023-04-20T12:29:47.254Z,51.42
2023-04-20T12:30:47.310Z,60.97
2023-04-20T12:31:46.262Z,71.07
2023-04-20T12:32:46.290Z,60.60
2023-04-20T12:33:46.245Z,55.69
2023-04-20T12:34:46.263Z,55.93
2023-04-20T12:35:47.214Z,63.11
2023-04-20T12:36:47.199Z,72.39
2023-04-20T12:37:46.194Z,65.02
2023-04-20T12:38:46.201Z,70.45
2023-04-20T12:39:46.187Z,62.86
2023-04-20T12:40:47.197Z,62.39
2023-04-20T12:41:47.158Z,66.05
2023-04-20T12:42:47.149Z,64.72
2023-04-20T12:43:47.165Z,57.90
2023-04-20T12:44:47.136Z,70.18
2023-04-20T12:45:47.154Z,60.55
2023-04-20T12:46:47.361Z,66.69
2023-04-20T12:47:46.193Z,68.25
2023-04-20T12:48:46.125Z,68.72
2023-04-20T12:51:05.337Z,25.00
2023-04-20T12:52:07.538Z,25.00
2023-04-20T12:53:06.265Z,25.00
2023-04-20T12:54:06.246Z,25.00
2023-04-20T12:55:05.258Z,25.00
2023-04-20T12:56:06.212Z,53.85
2023-04-20T12:57:05.263Z,93.27
2023-04-20T12:58:06.276Z,97.53
2023-04-20T12:59:05.207Z,78.05
2023-04-20T13:00:06.197Z,86.75
2023-04-20T13:01:06.244Z,107.20
2023-04-20T13:02:05.266Z,91.29
2023-04-20T13:03:06.335Z,62.14
2023-04-20T13:04:06.409Z,68.40
2023-04-20T13:05:06.145Z,59.03
2023-04-20T13:06:05.141Z,40.56
2023-04-20T13:07:05.146Z,48.14
2023-04-20T13:08:06.148Z,56.65
2023-04-20T13:09:05.207Z,47.40
2023-04-20T13:10:05.149Z,71.98
2023-04-20T13:11:06.100Z,93.71
2023-04-20T13:12:06.101Z,37.83
2023-04-20T13:13:06.092Z,26.72
2023-04-20T13:14:05.087Z,28.55
2023-04-20T13:15:05.400Z,28.08
2023-04-20T13:16:06.137Z,44.18
2023-04-20T13:17:05.107Z,73.16
2023-04-20T13:18:05.120Z,18.82
2023-04-20T13:19:06.061Z,12.79
2023-04-20T13:20:06.059Z,65.33
2023-04-20T13:21:05.108Z,30.75
2023-04-20T13:22:06.037Z,28.30
2023-04-20T13:23:06.039Z,26.41
2023-04-20T13:24:06.104Z,64.93
2023-04-20T13:25:06.005Z,144.38
2023-04-20T13:26:05.990Z,205.47
2023-04-20T13:27:06.062Z,261.29
2023-04-20T13:28:05.131Z,235.76
2023-04-20T13:29:05.002Z,216.76
2023-04-20T13:30:05.059Z,179.67
2023-04-20T13:31:05.966Z,206.81
2023-04-20T13:32:05.029Z,222.51
2023-04-20T13:33:06.124Z,238.90
2023-04-20T13:34:06.073Z,220.00
2023-04-20T13:35:06.087Z,256.92
2023-04-20T13:36:05.117Z,201.07
2023-04-20T13:37:05.151Z,292.57
2023-04-20T13:38:06.171Z,232.62
2023-04-20T13:39:05.278Z,271.44
2023-04-20T13:40:05.240Z,257.35
2023-04-20T13:41:06.269Z,171.67
2023-04-20T13:42:06.330Z,149.15
2023-04-20T13:43:06.397Z,155.34
2023-04-20T13:44:06.448Z,172.00
2023-04-20T13:45:06.461Z,147.29
2023-04-20T13:46:06.513Z,134.88
2023-04-20T13:47:05.524Z,130.69
2023-04-20T13:48:06.610Z,121.21
2023-04-20T13:49:05.554Z,139.59
2023-04-20T13:50:06.646Z,112.84
2023-04-20T13:51:05.624Z,118.69
2023-04-20T13:52:06.598Z,136.91
2023-04-20T13:53:06.659Z,181.33
2023-04-20T13:54:05.670Z,164.09
2023-04-20T13:55:05.657Z,150.30
2023-04-20T13:56:06.712Z,151.31
2023-04-20T13:57:05.754Z,144.88
2023-04-20T13:58:05.799Z,170.22
2023-04-20T13:59:06.827Z,159.65
2023-04-20T14:00:05.811Z,169.36
2023-04-20T14:01:05.892Z,131.40
2023-04-20T14:02:06.958Z,130.26
2023-04-20T14:03:07.106Z,127.86
2023-04-20T14:04:07.105Z,139.86
2023-04-20T14:05:07.025Z,157.36
2023-04-20T14:06:06.038Z,137.94
2023-04-20T14:07:07.074Z,158.11
2023-04-20T14:08:07.088Z,141.47
2023-04-20T14:09:07.087Z,168.23
2023-04-20T14:10:06.092Z,170.52
2023-04-20T14:11:06.089Z,167.75
2023-04-20T14:12:07.124Z,179.13
2023-04-20T14:13:06.135Z,178.64
2023-04-20T14:14:06.181Z,128.01
2023-04-20T14:15:07.219Z,146.58
2023-04-20T14:16:07.306Z,134.61
2023-04-20T14:17:07.249Z,135.87
2023-04-20T14:18:07.344Z,118.77
2023-04-20T14:19:06.358Z,100.98
2023-04-20T14:20:07.367Z,191.42
2023-04-20T14:21:07.355Z,182.81
2023-04-20T14:22:07.438Z,198.52
2023-04-20T14:23:08.091Z,201.13
2023-04-20T14:24:06.409Z,156.52
2023-04-20T14:25:06.430Z,131.77
2023-04-20T14:26:06.426Z,152.66
2023-04-20T14:27:06.392Z,158.66
2023-04-20T14:28:07.386Z,185.61
2023-04-20T14:29:06.386Z,167.80
2023-04-20T14:30:06.438Z,154.48
2023-04-20T14:31:07.376Z,165.92
2023-04-20T14:32:06.419Z,160.37
2023-04-20T14:33:06.371Z,153.09
2023-04-20T14:34:07.358Z,130.49
2023-04-20T14:35:06.358Z,114.57
2023-04-20T14:36:07.336Z,142.32
2023-04-20T14:37:07.366Z,140.74
2023-04-20T14:38:06.367Z,134.98
2023-04-20T14:39:06.330Z,163.16
2023-04-20T14:40:07.334Z,143.57
2023-04-20T14:41:07.323Z,134.88
2023-04-20T14:42:07.313Z,142.66
2023-04-20T14:43:07.297Z,123.32
2023-04-20T14:44:06.350Z,140.66
2023-04-20T14:45:07.283Z,164.79
2023-04-20T14:46:06.363Z,146.21
2023-04-20T14:47:06.280Z,159.70
2023-04-20T14:48:07.332Z,172.03
2023-04-20T14:49:06.303Z,159.25
2023-04-20T14:50:06.256Z,131.15
2023-04-20T14:51:07.258Z,139.40
2023-04-20T14:52:07.234Z,143.43
2023-04-20T14:53:07.250Z,143.18
2023-04-20T14:54:07.246Z,131.18
2023-04-20T14:55:07.202Z,147.06
2023-04-20T14:56:07.214Z,156.64
2023-04-20T14:57:07.202Z,195.33
2023-04-20T14:58:07.198Z,216.09
2023-04-20T14:59:06.199Z,214.53
2023-04-20T15:00:06.191Z,203.29
2023-04-20T15:01:07.163Z,252.44
2023-04-20T15:02:07.288Z,231.78
2023-04-20T15:03:07.344Z,232.39
2023-04-20T15:04:07.338Z,192.04
2023-04-20T15:05:10.267Z,181.19
2023-04-20T15:06:06.158Z,181.80
2023-04-20T15:07:07.126Z,184.26
2023-04-20T15:08:07.174Z,191.17
2023-04-20T15:09:06.113Z,180.62
2023-04-20T15:10:07.148Z,199.90
2023-04-20T15:11:06.113Z,193.16
2023-04-20T15:12:07.125Z,180.67
2023-04-20T15:13:06.096Z,203.53
2023-04-20T15:14:07.154Z,189.16
2023-04-20T15:15:06.107Z,211.21
2023-04-20T15:16:06.083Z,231.29
2023-04-20T15:17:07.080Z,193.39
2023-04-20T15:18:07.070Z,201.03
2023-04-20T15:19:07.473Z,219.34
2023-04-20T15:20:07.078Z,208.58
2023-04-20T15:21:06.046Z,184.73
2023-04-20T15:22:07.038Z,161.17
2023-04-20T15:23:06.026Z,157.20
2023-04-20T15:24:06.076Z,500.00
2023-04-20T15:25:07.540Z,375.03
2023-04-20T15:26:06.179Z,367.91
2023-04-20T15:27:07.315Z,341.85
2023-04-20T15:28:07.160Z,321.39
2023-04-20T15:29:06.153Z,250.16
